Hovedside
METAR-TAF:

METAR-TAF

Lufthavner :

Tallinn, Estland

Lennart Meri Tallinn lufthavn

breddegrad: 59-23N, lengdegrad: 024-35E, høyde over havet: 44 m

Gjeldene værobservasjon

Denne rapporten ble laget for 21 minutter siden, klokken 18:20 UTC
Vind 10 kt fra Øst
Temperatur 12°C
Luftfuktighet 94%
Trykk 1025 hPa
Sikt 10 km eller mer
ingen skyer under 1500 m og ingen bygeskyer

METAR: EETN 221820Z 08010KT CAVOK 12/11 Q1025 NOSIG

Tid: 21:41 (18:41 UTC)

Varsel

Denne rapporten ble laget for 1 time og 41 minutter siden, klokken 17:00 UTC
Varsel gyldig fra 22. klokken 18 UTC til 23. klokken 18 UTC
Vind 6 kt fra Øst
Sikt 10 km eller mer
ingen skyer under 1500 m og ingen bygeskyer
Sannsynlighet 40% :
Midlertidig
fra 22. klokken 20 UTC til 23. klokken 06 UTC
Sikt: 1000 m
Brutte skyer i en høyde av 300 ft
dis

TAF: EETN 221700Z 2218/2318 09006KT CAVOK PROB40 TEMPO 2220/2306 1000 BR BKN003

Værobservasjoner og værvarsel for over 4000 flyplasser (METAR- og TAF-rapporter).

Tilgjengelige stasjoner er representert av de røde og gule prikkene på kartet.

Hold musepekeren over prikken for å se navnet på stasjonen.

Klikk så for å se værobservasjoner og -varsler.

For å forandre kartet kan du klikke på den grønne knappen med svart kryss for å zoome inn, på den grønne knappen med strek for å zoome ut, eller på de grønne pilene for å se tilstøtende kart.


METAR-TAF: